sensor_id;sensor_type;location;lat;lon;timestamp;temperature;humidity
75865;HTU21D;64510;46.704;38.274;2023-02-02T00:00:51;1.88;98.10
75865;HTU21D;64510;46.704;38.274;2023-02-02T00:03:17;1.86;98.07
75865;HTU21D;64510;46.704;38.274;2023-02-02T00:05:45;1.83;97.98
75865;HTU21D;64510;46.704;38.274;2023-02-02T00:08:11;1.83;98.07
75865;HTU21D;64510;46.704;38.274;2023-02-02T00:10:37;1.81;97.96
75865;HTU21D;64510;46.704;38.274;2023-02-02T00:13:02;1.80;97.96
75865;HTU21D;64510;46.704;38.274;2023-02-02T00:15:28;1.78;97.32
75865;HTU21D;64510;46.704;38.274;2023-02-02T00:17:54;1.78;97.81
75865;HTU21D;64510;46.704;38.274;2023-02-02T00:20:20;1.79;97.87
75865;HTU21D;64510;46.704;38.274;2023-02-02T00:22:47;1.77;97.95
75865;HTU21D;64510;46.704;38.274;2023-02-02T00:25:13;1.77;97.93
75865;HTU21D;64510;46.704;38.274;2023-02-02T00:27:38;1.76;97.84
75865;HTU21D;64510;46.704;38.274;2023-02-02T00:30:05;1.78;97.93
75865;HTU21D;64510;46.704;38.274;2023-02-02T00:32:31;1.78;97.87
75865;HTU21D;64510;46.704;38.274;2023-02-02T00:34:57;1.77;97.92
75865;HTU21D;64510;46.704;38.274;2023-02-02T00:37:23;1.78;97.93
75865;HTU21D;64510;46.704;38.274;2023-02-02T00:39:49;1.75;97.67
75865;HTU21D;64510;46.704;38.274;2023-02-02T00:42:16;1.71;97.36
75865;HTU21D;64510;46.704;38.274;2023-02-02T00:44:42;1.65;97.41
75865;HTU21D;64510;46.704;38.274;2023-02-02T00:47:27;1.61;97.48
75865;HTU21D;64510;46.704;38.274;2023-02-02T00:49:53;1.60;97.86
75865;HTU21D;64510;46.704;38.274;2023-02-02T00:52:19;1.58;97.67
75865;HTU21D;64510;46.704;38.274;2023-02-02T00:54:45;1.58;97.68
75865;HTU21D;64510;46.704;38.274;2023-02-02T00:57:14;1.55;97.58
75865;HTU21D;64510;46.704;38.274;2023-02-02T00:59:40;1.53;97.64
75865;HTU21D;64510;46.704;38.274;2023-02-02T01:02:08;1.54;97.68
75865;HTU21D;64510;46.704;38.274;2023-02-02T01:04:34;1.53;97.74
75865;HTU21D;64510;46.704;38.274;2023-02-02T01:07:00;1.53;97.71
75865;HTU21D;64510;46.704;38.274;2023-02-02T01:09:26;1.51;97.54
75865;HTU21D;64510;46.704;38.274;2023-02-02T01:11:52;1.48;97.52
75865;HTU21D;64510;46.704;38.274;2023-02-02T01:14:18;1.48;97.58
75865;HTU21D;64510;46.704;38.274;2023-02-02T01:16:44;1.45;96.87
75865;HTU21D;64510;46.704;38.274;2023-02-02T01:19:14;1.41;97.00
75865;HTU21D;64510;46.704;38.274;2023-02-02T01:21:41;1.43;97.57
75865;HTU21D;64510;46.704;38.274;2023-02-02T01:24:07;1.43;97.47
75865;HTU21D;64510;46.704;38.274;2023-02-02T01:26:33;1.42;97.56
75865;HTU21D;64510;46.704;38.274;2023-02-02T01:28:59;1.39;97.29
75865;HTU21D;64510;46.704;38.274;2023-02-02T01:31:25;1.38;97.36
75865;HTU21D;64510;46.704;38.274;2023-02-02T01:33:51;1.34;97.32
75865;HTU21D;64510;46.704;38.274;2023-02-02T01:36:19;1.34;97.55
75865;HTU21D;64510;46.704;38.274;2023-02-02T01:38:46;1.32;97.39
75865;HTU21D;64510;46.704;38.274;2023-02-02T01:41:15;1.32;97.40
75865;HTU21D;64510;46.704;38.274;2023-02-02T01:46:15;1.26;97.45
75865;HTU21D;64510;46.704;38.274;2023-02-02T01:48:54;1.27;97.51
75865;HTU21D;64510;46.704;38.274;2023-02-02T01:51:24;1.26;97.54
75865;HTU21D;64510;46.704;38.274;2023-02-02T01:53:53;1.25;97.55
75865;HTU21D;64510;46.704;38.274;2023-02-02T01:56:27;1.26;97.61
75865;HTU21D;64510;46.704;38.274;2023-02-02T01:58:54;1.22;97.23
75865;HTU21D;64510;46.704;38.274;2023-02-02T02:01:20;1.20;97.29
75865;HTU21D;64510;46.704;38.274;2023-02-02T02:03:46;1.19;97.32
75865;HTU21D;64510;46.704;38.274;2023-02-02T02:06:15;1.18;97.29
75865;HTU21D;64510;46.704;38.274;2023-02-02T02:08:59;1.18;97.07
75865;HTU21D;64510;46.704;38.274;2023-02-02T02:11:29;1.16;97.38
75865;HTU21D;64510;46.704;38.274;2023-02-02T02:13:58;1.17;97.29
75865;HTU21D;64510;46.704;38.274;2023-02-02T02:35:11;1.19;97.58
75865;HTU21D;64510;46.704;38.274;2023-02-02T02:38:20;1.23;97.73
75865;HTU21D;64510;46.704;38.274;2023-02-02T02:43:05;1.23;97.31
75865;HTU21D;64510;46.704;38.274;2023-02-02T02:45:33;1.23;97.16
75865;HTU21D;64510;46.704;38.274;2023-02-02T02:47:59;1.25;97.41
75865;HTU21D;64510;46.704;38.274;2023-02-02T02:50:27;1.25;97.42
75865;HTU21D;64510;46.704;38.274;2023-02-02T02:53:01;1.27;97.37
75865;HTU21D;64510;46.704;38.274;2023-02-02T02:56:21;1.31;97.61
75865;HTU21D;64510;46.704;38.274;2023-02-02T02:58:34;1.34;97.57
75865;HTU21D;64510;46.704;38.274;2023-02-02T03:01:20;1.37;97.50
75865;HTU21D;64510;46.704;38.274;2023-02-02T03:04:09;1.38;97.32
75865;HTU21D;64510;46.704;38.274;2023-02-02T03:09:29;1.39;97.32
75865;HTU21D;64510;46.704;38.274;2023-02-02T03:11:57;1.39;97.37
75865;HTU21D;64510;46.704;38.274;2023-02-02T03:14:24;1.40;97.32
75865;HTU21D;64510;46.704;38.274;2023-02-02T03:16:50;1.39;97.32
75865;HTU21D;64510;46.704;38.274;2023-02-02T03:19:17;1.42;97.52
75865;HTU21D;64510;46.704;38.274;2023-02-02T03:21:43;1.46;97.46
75865;HTU21D;64510;46.704;38.274;2023-02-02T03:24:09;1.49;97.43
75865;HTU21D;64510;46.704;38.274;2023-02-02T03:26:35;1.52;97.40
75865;HTU21D;64510;46.704;38.274;2023-02-02T03:29:01;1.53;97.30
75865;HTU21D;64510;46.704;38.274;2023-02-02T03:31:28;1.55;97.32
75865;HTU21D;64510;46.704;38.274;2023-02-02T03:33:55;1.57;97.29
75865;HTU21D;64510;46.704;38.274;2023-02-02T03:36:21;1.58;97.29
75865;HTU21D;64510;46.704;38.274;2023-02-02T03:38:47;1.61;97.29
75865;HTU21D;64510;46.704;38.274;2023-02-02T03:41:13;1.63;97.26
75865;HTU21D;64510;46.704;38.274;2023-02-02T03:43:39;1.67;97.45
75865;HTU21D;64510;46.704;38.274;2023-02-02T03:46:05;1.69;97.23
75865;HTU21D;64510;46.704;38.274;2023-02-02T03:48:36;1.69;97.26
75865;HTU21D;64510;46.704;38.274;2023-02-02T03:51:11;1.70;97.10
75865;HTU21D;64510;46.704;38.274;2023-02-02T03:53:37;1.70;97.19
75865;HTU21D;64510;46.704;38.274;2023-02-02T03:56:04;1.72;97.15
75865;HTU21D;64510;46.704;38.274;2023-02-02T03:58:30;1.73;97.08
75865;HTU21D;64510;46.704;38.274;2023-02-02T04:01:05;1.75;97.02
75865;HTU21D;64510;46.704;38.274;2023-02-02T04:03:32;1.75;97.16
75865;HTU21D;64510;46.704;38.274;2023-02-02T04:05:59;1.76;97.19
75865;HTU21D;64510;46.704;38.274;2023-02-02T04:08:25;1.77;97.12
75865;HTU21D;64510;46.704;38.274;2023-02-02T04:10:51;1.79;97.26
75865;HTU21D;64510;46.704;38.274;2023-02-02T04:13:17;1.81;97.15
75865;HTU21D;64510;46.704;38.274;2023-02-02T04:15:42;1.81;97.05
75865;HTU21D;64510;46.704;38.274;2023-02-02T04:18:08;1.82;97.07
75865;HTU21D;64510;46.704;38.274;2023-02-02T04:20:34;1.85;97.14
75865;HTU21D;64510;46.704;38.274;2023-02-02T04:23:00;1.86;96.88
75865;HTU21D;64510;46.704;38.274;2023-02-02T04:25:26;1.84;97.04
75865;HTU21D;64510;46.704;38.274;2023-02-02T04:27:52;1.83;96.89
75865;HTU21D;64510;46.704;38.274;2023-02-02T04:30:18;1.83;96.98
75865;HTU21D;64510;46.704;38.274;2023-02-02T04:32:45;1.83;97.04
75865;HTU21D;64510;46.704;38.274;2023-02-02T04:35:10;1.82;96.99
75865;HTU21D;64510;46.704;38.274;2023-02-02T04:37:36;1.81;97.00
75865;HTU21D;64510;46.704;38.274;2023-02-02T04:40:03;1.80;96.93
75865;HTU21D;64510;46.704;38.274;2023-02-02T04:42:30;1.72;96.43
75865;HTU21D;64510;46.704;38.274;2023-02-02T04:44:57;1.72;97.06
75865;HTU21D;64510;46.704;38.274;2023-02-02T04:47:23;1.69;97.02
75865;HTU21D;64510;46.704;38.274;2023-02-02T04:49:49;1.68;97.16
75865;HTU21D;64510;46.704;38.274;2023-02-02T04:52:15;1.72;97.27
75865;HTU21D;64510;46.704;38.274;2023-02-02T04:54:41;1.77;97.32
75865;HTU21D;64510;46.704;38.274;2023-02-02T04:57:07;1.81;97.35
75865;HTU21D;64510;46.704;38.274;2023-02-02T04:59:32;1.84;97.45
75865;HTU21D;64510;46.704;38.274;2023-02-02T05:01:59;1.90;97.34
75865;HTU21D;64510;46.704;38.274;2023-02-02T05:04:25;1.93;97.34
75865;HTU21D;64510;46.704;38.274;2023-02-02T05:06:52;1.94;97.10
75865;HTU21D;64510;46.704;38.274;2023-02-02T05:09:18;1.94;97.14
75865;HTU21D;64510;46.704;38.274;2023-02-02T05:11:43;1.97;97.18
75865;HTU21D;64510;46.704;38.274;2023-02-02T05:14:10;1.99;97.24
75865;HTU21D;64510;46.704;38.274;2023-02-02T05:16:36;2.05;97.29
75865;HTU21D;64510;46.704;38.274;2023-02-02T05:19:02;2.09;97.25
75865;HTU21D;64510;46.704;38.274;2023-02-02T05:21:28;2.10;97.20
75865;HTU21D;64510;46.704;38.274;2023-02-02T05:23:54;2.12;97.05
75865;HTU21D;64510;46.704;38.274;2023-02-02T05:26:22;2.14;97.12
75865;HTU21D;64510;46.704;38.274;2023-02-02T05:28:49;2.16;97.15
75865;HTU21D;64510;46.704;38.274;2023-02-02T05:31:15;2.16;96.97
75865;HTU21D;64510;46.704;38.274;2023-02-02T05:33:41;2.19;97.00
75865;HTU21D;64510;46.704;38.274;2023-02-02T05:36:07;2.19;96.92
75865;HTU21D;64510;46.704;38.274;2023-02-02T05:38:33;2.20;96.89
75865;HTU21D;64510;46.704;38.274;2023-02-02T05:40:59;2.22;97.09
75865;HTU21D;64510;46.704;38.274;2023-02-02T05:43:26;2.24;97.01
75865;HTU21D;64510;46.704;38.274;2023-02-02T05:45:52;2.25;97.02
75865;HTU21D;64510;46.704;38.274;2023-02-02T05:48:18;2.29;97.13
75865;HTU21D;64510;46.704;38.274;2023-02-02T05:50:53;2.31;96.76
75865;HTU21D;64510;46.704;38.274;2023-02-02T05:53:20;2.35;96.71
75865;HTU21D;64510;46.704;38.274;2023-02-02T05:55:46;2.37;96.76
75865;HTU21D;64510;46.704;38.274;2023-02-02T05:58:12;2.39;96.81
75865;HTU21D;64510;46.704;38.274;2023-02-02T06:00:38;2.43;96.68
75865;HTU21D;64510;46.704;38.274;2023-02-02T06:03:04;2.51;96.91
75865;HTU21D;64510;46.704;38.274;2023-02-02T06:05:29;2.59;96.62
75865;HTU21D;64510;46.704;38.274;2023-02-02T06:07:55;2.65;96.52
75865;HTU21D;64510;46.704;38.274;2023-02-02T06:10:21;2.72;96.41
75865;HTU21D;64510;46.704;38.274;2023-02-02T06:12:47;2.74;96.23
75865;HTU21D;64510;46.704;38.274;2023-02-02T06:15:13;2.79;96.60
75865;HTU21D;64510;46.704;38.274;2023-02-02T06:17:39;2.84;96.23
75865;HTU21D;64510;46.704;38.274;2023-02-02T06:20:05;2.88;96.22
75865;HTU21D;64510;46.704;38.274;2023-02-02T06:22:31;2.90;96.38
75865;HTU21D;64510;46.704;38.274;2023-02-02T06:24:57;2.91;96.11
75865;HTU21D;64510;46.704;38.274;2023-02-02T06:27:23;2.91;95.82
75865;HTU21D;64510;46.704;38.274;2023-02-02T06:29:49;2.89;95.01
75865;HTU21D;64510;46.704;38.274;2023-02-02T06:32:15;2.91;95.70
75865;HTU21D;64510;46.704;38.274;2023-02-02T06:34:41;2.94;95.49
75865;HTU21D;64510;46.704;38.274;2023-02-02T06:37:07;2.98;95.08
75865;HTU21D;64510;46.704;38.274;2023-02-02T06:39:32;3.01;95.15
75865;HTU21D;64510;46.704;38.274;2023-02-02T06:41:58;3.09;94.30
75865;HTU21D;64510;46.704;38.274;2023-02-02T06:44:24;3.18;94.87
75865;HTU21D;64510;46.704;38.274;2023-02-02T06:46:50;3.25;95.08
75865;HTU21D;64510;46.704;38.274;2023-02-02T06:49:16;3.31;95.17
75865;HTU21D;64510;46.704;38.274;2023-02-02T06:51:42;3.38;95.01
75865;HTU21D;64510;46.704;38.274;2023-02-02T06:54:07;3.43;95.43
75865;HTU21D;64510;46.704;38.274;2023-02-02T06:56:33;3.50;95.24
75865;HTU21D;64510;46.704;38.274;2023-02-02T06:58:59;3.62;95.38
75865;HTU21D;64510;46.704;38.274;2023-02-02T07:01:25;3.75;95.23
75865;HTU21D;64510;46.704;38.274;2023-02-02T07:03:51;3.92;94.46
75865;HTU21D;64510;46.704;38.274;2023-02-02T07:06:25;4.05;92.53
75865;HTU21D;64510;46.704;38.274;2023-02-02T07:08:51;4.09;92.88
75865;HTU21D;64510;46.704;38.274;2023-02-02T07:11:17;4.16;93.85
75865;HTU21D;64510;46.704;38.274;2023-02-02T07:13:45;4.22;93.18
75865;HTU21D;64510;46.704;38.274;2023-02-02T07:16:12;4.30;92.76
75865;HTU21D;64510;46.704;38.274;2023-02-02T07:18:38;4.42;91.68
75865;HTU21D;64510;46.704;38.274;2023-02-02T07:21:05;4.52;90.22
75865;HTU21D;64510;46.704;38.274;2023-02-02T07:23:32;4.64;89.57
75865;HTU21D;64510;46.704;38.274;2023-02-02T07:26:07;4.76;92.01
75865;HTU21D;64510;46.704;38.274;2023-02-02T07:28:33;4.92;91.78
75865;HTU21D;64510;46.704;38.274;2023-02-02T07:31:00;5.06;91.07
75865;HTU21D;64510;46.704;38.274;2023-02-02T07:33:26;5.09;88.64
75865;HTU21D;64510;46.704;38.274;2023-02-02T07:35:52;5.13;90.29
75865;HTU21D;64510;46.704;38.274;2023-02-02T07:38:18;5.11;90.83
75865;HTU21D;64510;46.704;38.274;2023-02-02T07:40:44;5.13;90.34
75865;HTU21D;64510;46.704;38.274;2023-02-02T07:43:11;5.17;89.74
75865;HTU21D;64510;46.704;38.274;2023-02-02T07:45:37;5.22;90.13
75865;HTU21D;64510;46.704;38.274;2023-02-02T07:48:03;5.28;87.33
75865;HTU21D;64510;46.704;38.274;2023-02-02T07:50:30;5.39;89.43
75865;HTU21D;64510;46.704;38.274;2023-02-02T07:52:57;5.48;89.78
75865;HTU21D;64510;46.704;38.274;2023-02-02T07:55:24;5.56;90.87
75865;HTU21D;64510;46.704;38.274;2023-02-02T07:57:52;5.54;87.61
75865;HTU21D;64510;46.704;38.274;2023-02-02T08:00:20;5.55;88.73
75865;HTU21D;64510;46.704;38.274;2023-02-02T08:02:49;5.55;88.86
75865;HTU21D;64510;46.704;38.274;2023-02-02T08:05:15;5.55;89.86
75865;HTU21D;64510;46.704;38.274;2023-02-02T08:07:41;5.50;88.32
75865;HTU21D;64510;46.704;38.274;2023-02-02T08:10:09;5.47;88.34
75865;HTU21D;64510;46.704;38.274;2023-02-02T08:12:35;5.43;88.19
75865;HTU21D;64510;46.704;38.274;2023-02-02T08:15:01;5.42;88.33
75865;HTU21D;64510;46.704;38.274;2023-02-02T08:17:27;5.42;89.10
75865;HTU21D;64510;46.704;38.274;2023-02-02T08:19:53;5.42;88.76
75865;HTU21D;64510;46.704;38.274;2023-02-02T08:22:19;5.48;89.14
75865;HTU21D;64510;46.704;38.274;2023-02-02T08:24:44;5.55;87.60
75865;HTU21D;64510;46.704;38.274;2023-02-02T08:27:10;5.65;89.09
75865;HTU21D;64510;46.704;38.274;2023-02-02T08:29:37;5.76;88.86
75865;HTU21D;64510;46.704;38.274;2023-02-02T08:32:03;5.86;88.44
75865;HTU21D;64510;46.704;38.274;2023-02-02T08:34:29;5.95;87.32
75865;HTU21D;64510;46.704;38.274;2023-02-02T08:36:55;6.04;89.06
75865;HTU21D;64510;46.704;38.274;2023-02-02T08:39:21;6.01;87.19
75865;HTU21D;64510;46.704;38.274;2023-02-02T08:41:47;5.98;87.72
75865;HTU21D;64510;46.704;38.274;2023-02-02T08:44:14;5.95;88.83
75865;HTU21D;64510;46.704;38.274;2023-02-02T08:46:41;5.89;88.58
75865;HTU21D;64510;46.704;38.274;2023-02-02T08:49:11;5.81;86.49
75865;HTU21D;64510;46.704;38.274;2023-02-02T08:51:37;5.79;87.23
75865;HTU21D;64510;46.704;38.274;2023-02-02T08:54:03;5.77;87.53
75865;HTU21D;64510;46.704;38.274;2023-02-02T08:56:29;5.78;88.44
75865;HTU21D;64510;46.704;38.274;2023-02-02T08:58:56;5.85;89.43
75865;HTU21D;64510;46.704;38.274;2023-02-02T09:04:06;5.81;87.53
75865;HTU21D;64510;46.704;38.274;2023-02-02T09:06:35;5.71;86.96
75865;HTU21D;64510;46.704;38.274;2023-02-02T09:09:02;5.63;87.30
75865;HTU21D;64510;46.704;38.274;2023-02-02T09:11:29;5.61;88.48
75865;HTU21D;64510;46.704;38.274;2023-02-02T09:13:56;5.56;88.48
75865;HTU21D;64510;46.704;38.274;2023-02-02T09:16:24;5.50;88.35
75865;HTU21D;64510;46.704;38.274;2023-02-02T09:18:51;5.42;87.84
75865;HTU21D;64510;46.704;38.274;2023-02-02T09:21:17;5.39;88.64
75865;HTU21D;64510;46.704;38.274;2023-02-02T09:23:45;5.37;88.88
75865;HTU21D;64510;46.704;38.274;2023-02-02T09:28:40;5.35;88.42
75865;HTU21D;64510;46.704;38.274;2023-02-02T09:31:07;5.35;88.65
75865;HTU21D;64510;46.704;38.274;2023-02-02T09:33:33;5.37;88.54
75865;HTU21D;64510;46.704;38.274;2023-02-02T09:36:07;5.40;89.01
75865;HTU21D;64510;46.704;38.274;2023-02-02T09:38:33;5.37;88.51
75865;HTU21D;64510;46.704;38.274;2023-02-02T09:41:00;5.33;87.95
75865;HTU21D;64510;46.704;38.274;2023-02-02T09:46:28;5.33;89.43
75865;HTU21D;64510;46.704;38.274;2023-02-02T09:49:05;5.41;89.89
75865;HTU21D;64510;46.704;38.274;2023-02-02T09:51:36;5.51;89.05
75865;HTU21D;64510;46.704;38.274;2023-02-02T09:54:14;5.64;89.33
75865;HTU21D;64510;46.704;38.274;2023-02-02T09:56:44;5.75;89.26
75865;HTU21D;64510;46.704;38.274;2023-02-02T09:59:21;5.86;89.07
75865;HTU21D;64510;46.704;38.274;2023-02-02T10:01:52;5.95;89.12
75865;HTU21D;64510;46.704;38.274;2023-02-02T10:04:26;6.02;89.37
75865;HTU21D;64510;46.704;38.274;2023-02-02T10:06:58;6.05;87.18
75865;HTU21D;64510;46.704;38.274;2023-02-02T10:18:22;6.19;88.10
75865;HTU21D;64510;46.704;38.274;2023-02-02T10:20:53;6.12;88.51
75865;HTU21D;64510;46.704;38.274;2023-02-02T10:23:40;6.11;88.02
75865;HTU21D;64510;46.704;38.274;2023-02-02T10:29:17;6.23;88.62
75865;HTU21D;64510;46.704;38.274;2023-02-02T10:34:41;6.43;88.35
75865;HTU21D;64510;46.704;38.274;2023-02-02T10:40:13;6.52;88.06
75865;HTU21D;64510;46.704;38.274;2023-02-02T10:45:40;6.40;87.42
75865;HTU21D;64510;46.704;38.274;2023-02-02T10:48:15;6.30;87.64
75865;HTU21D;64510;46.704;38.274;2023-02-02T10:50:48;6.23;88.15
75865;HTU21D;64510;46.704;38.274;2023-02-02T10:53:16;6.17;88.22
75865;HTU21D;64510;46.704;38.274;2023-02-02T10:55:44;6.13;88.27
75865;HTU21D;64510;46.704;38.274;2023-02-02T11:00:46;6.14;88.75
75865;HTU21D;64510;46.704;38.274;2023-02-02T11:03:16;6.14;88.67
75865;HTU21D;64510;46.704;38.274;2023-02-02T11:05:44;6.15;88.77
75865;HTU21D;64510;46.704;38.274;2023-02-02T11:08:33;6.15;88.83
75865;HTU21D;64510;46.704;38.274;2023-02-02T11:13:40;6.21;88.61
75865;HTU21D;64510;46.704;38.274;2023-02-02T11:18:39;6.25;88.09
75865;HTU21D;64510;46.704;38.274;2023-02-02T11:21:18;6.30;88.38
75865;HTU21D;64510;46.704;38.274;2023-02-02T11:26:18;6.35;88.49
75865;HTU21D;64510;46.704;38.274;2023-02-02T11:28:47;6.43;88.18
75865;HTU21D;64510;46.704;38.274;2023-02-02T11:31:34;6.54;88.42
75865;HTU21D;64510;46.704;38.274;2023-02-02T11:36:35;6.60;88.12
75865;HTU21D;64510;46.704;38.274;2023-02-02T11:39:20;6.65;87.99
75865;HTU21D;64510;46.704;38.274;2023-02-02T11:41:46;6.70;88.04
75865;HTU21D;64510;46.704;38.274;2023-02-02T11:44:24;6.68;87.93
75865;HTU21D;64510;46.704;38.274;2023-02-02T11:46:51;6.63;87.41
75865;HTU21D;64510;46.704;38.274;2023-02-02T11:49:19;6.55;87.41
75865;HTU21D;64510;46.704;38.274;2023-02-02T11:52:01;6.51;87.43
75865;HTU21D;64510;46.704;38.274;2023-02-02T11:54:33;6.46;86.75
75865;HTU21D;64510;46.704;38.274;2023-02-02T11:57:03;6.43;87.73
75865;HTU21D;64510;46.704;38.274;2023-02-02T11:59:39;6.45;87.83
75865;HTU21D;64510;46.704;38.274;2023-02-02T12:04:39;6.46;87.71
75865;HTU21D;64510;46.704;38.274;2023-02-02T12:07:29;6.49;86.64
75865;HTU21D;64510;46.704;38.274;2023-02-02T12:10:01;6.43;87.28
75865;HTU21D;64510;46.704;38.274;2023-02-02T12:12:44;6.43;87.35
75865;HTU21D;64510;46.704;38.274;2023-02-02T12:17:44;6.26;85.48
75865;HTU21D;64510;46.704;38.274;2023-02-02T12:20:21;6.21;87.23
75865;HTU21D;64510;46.704;38.274;2023-02-02T12:23:12;6.15;87.51
75865;HTU21D;64510;46.704;38.274;2023-02-02T12:36:49;6.16;87.70
75865;HTU21D;64510;46.704;38.274;2023-02-02T12:42:52;6.05;87.28
75865;HTU21D;64510;46.704;38.274;2023-02-02T12:48:14;5.95;87.37
75865;HTU21D;64510;46.704;38.274;2023-02-02T12:53:38;5.86;87.42
75865;HTU21D;64510;46.704;38.274;2023-02-02T12:56:21;5.87;87.59
75865;HTU21D;64510;46.704;38.274;2023-02-02T13:02:01;5.83;87.60
75865;HTU21D;64510;46.704;38.274;2023-02-02T13:07:43;5.79;87.83
75865;HTU21D;64510;46.704;38.274;2023-02-02T13:13:06;5.81;87.86
75865;HTU21D;64510;46.704;38.274;2023-02-02T13:15:43;5.86;87.93
75865;HTU21D;64510;46.704;38.274;2023-02-02T13:18:17;5.92;87.98
75865;HTU21D;64510;46.704;38.274;2023-02-02T13:20:47;5.94;87.94
75865;HTU21D;64510;46.704;38.274;2023-02-02T13:23:36;5.97;87.77
75865;HTU21D;64510;46.704;38.274;2023-02-02T13:26:08;5.93;87.13
75865;HTU21D;64510;46.704;38.274;2023-02-02T13:37:35;5.77;87.32
75865;HTU21D;64510;46.704;38.274;2023-02-02T13:45:44;5.59;87.14
75865;HTU21D;64510;46.704;38.274;2023-02-02T13:56:54;5.26;88.19
75865;HTU21D;64510;46.704;38.274;2023-02-02T14:05:00;5.15;88.24
75865;HTU21D;64510;46.704;38.274;2023-02-02T14:07:47;5.08;88.18
75865;HTU21D;64510;46.704;38.274;2023-02-02T14:10:23;4.95;88.03
75865;HTU21D;64510;46.704;38.274;2023-02-02T14:12:50;4.86;88.17
75865;HTU21D;64510;46.704;38.274;2023-02-02T14:15:17;4.73;88.03
75865;HTU21D;64510;46.704;38.274;2023-02-02T14:20:45;4.43;88.22
75865;HTU21D;64510;46.704;38.274;2023-02-02T14:23:49;4.28;88.67
75865;HTU21D;64510;46.704;38.274;2023-02-02T14:34:36;3.77;89.33
75865;HTU21D;64510;46.704;38.274;2023-02-02T14:48:46;3.38;89.89
75865;HTU21D;64510;46.704;38.274;2023-02-02T14:51:21;3.35;90.03
75865;HTU21D;64510;46.704;38.274;2023-02-02T14:53:49;3.30;89.98
75865;HTU21D;64510;46.704;38.274;2023-02-02T14:56:16;3.27;90.02
75865;HTU21D;64510;46.704;38.274;2023-02-02T15:06:27;3.09;89.96
75865;HTU21D;64510;46.704;38.274;2023-02-02T15:25:44;2.47;90.50
75865;HTU21D;64510;46.704;38.274;2023-02-02T15:29:05;2.40;90.58
75865;HTU21D;64510;46.704;38.274;2023-02-02T15:31:38;2.30;90.47
75865;HTU21D;64510;46.704;38.274;2023-02-02T15:34:19;2.16;90.65
75865;HTU21D;64510;46.704;38.274;2023-02-02T15:36:50;2.07;90.78
75865;HTU21D;64510;46.704;38.274;2023-02-02T15:39:28;2.03;90.88
75865;HTU21D;64510;46.704;38.274;2023-02-02T15:41:56;1.95;90.90
75865;HTU21D;64510;46.704;38.274;2023-02-02T15:44:40;1.90;90.95
75865;HTU21D;64510;46.704;38.274;2023-02-02T15:47:11;1.82;91.06
75865;HTU21D;64510;46.704;38.274;2023-02-02T15:49:39;1.79;91.20
75865;HTU21D;64510;46.704;38.274;2023-02-02T15:52:27;1.79;91.34
75865;HTU21D;64510;46.704;38.274;2023-02-02T15:54:58;1.73;91.38
75865;HTU21D;64510;46.704;38.274;2023-02-02T15:57:33;1.73;91.46
75865;HTU21D;64510;46.704;38.274;2023-02-02T16:00:23;1.73;91.46
75865;HTU21D;64510;46.704;38.274;2023-02-02T16:02:51;1.71;91.49
75865;HTU21D;64510;46.704;38.274;2023-02-02T16:05:38;1.68;91.55
75865;HTU21D;64510;46.704;38.274;2023-02-02T16:08:17;1.67;91.53
75865;HTU21D;64510;46.704;38.274;2023-02-02T16:10:45;1.65;91.63
75865;HTU21D;64510;46.704;38.274;2023-02-02T16:13:31;1.67;91.69
75865;HTU21D;64510;46.704;38.274;2023-02-02T16:16:00;1.61;91.64
75865;HTU21D;64510;46.704;38.274;2023-02-02T16:18:27;1.56;91.61
75865;HTU21D;64510;46.704;38.274;2023-02-02T16:20:54;1.52;91.56
75865;HTU21D;64510;46.704;38.274;2023-02-02T16:23:29;1.47;91.87
75865;HTU21D;64510;46.704;38.274;2023-02-02T16:25:58;1.45;91.83
75865;HTU21D;64510;46.704;38.274;2023-02-02T16:28:24;1.43;92.08
75865;HTU21D;64510;46.704;38.274;2023-02-02T16:30:51;1.40;92.05
75865;HTU21D;64510;46.704;38.274;2023-02-02T16:33:36;1.40;92.18
75865;HTU21D;64510;46.704;38.274;2023-02-02T16:36:16;1.38;92.09
75865;HTU21D;64510;46.704;38.274;2023-02-02T16:38:43;1.34;92.10
75865;HTU21D;64510;46.704;38.274;2023-02-02T16:41:23;1.37;92.14
75865;HTU21D;64510;46.704;38.274;2023-02-02T16:43:51;1.33;92.01
75865;HTU21D;64510;46.704;38.274;2023-02-02T16:49:14;1.33;92.30
75865;HTU21D;64510;46.704;38.274;2023-02-02T16:51:40;1.29;92.24
75865;HTU21D;64510;46.704;38.274;2023-02-02T16:56:36;1.29;92.13
75865;HTU21D;64510;46.704;38.274;2023-02-02T16:59:15;1.23;92.04
75865;HTU21D;64510;46.704;38.274;2023-02-02T17:01:47;1.12;92.06
75865;HTU21D;64510;46.704;38.274;2023-02-02T17:04:29;1.08;92.34
75865;HTU21D;64510;46.704;38.274;2023-02-02T17:07:12;1.05;92.46
75865;HTU21D;64510;46.704;38.274;2023-02-02T17:09:42;0.98;92.40
75865;HTU21D;64510;46.704;38.274;2023-02-02T17:12:23;0.93;92.59
75865;HTU21D;64510;46.704;38.274;2023-02-02T17:14:55;0.90;92.66
75865;HTU21D;64510;46.704;38.274;2023-02-02T17:17:24;0.88;92.72
75865;HTU21D;64510;46.704;38.274;2023-02-02T17:19:50;0.81;92.75
75865;HTU21D;64510;46.704;38.274;2023-02-02T17:22:18;0.78;93.27
75865;HTU21D;64510;46.704;38.274;2023-02-02T17:24:47;0.72;93.18
75865;HTU21D;64510;46.704;38.274;2023-02-02T17:27:16;0.69;93.68
75865;HTU21D;64510;46.704;38.274;2023-02-02T17:29:43;0.66;93.51
75865;HTU21D;64510;46.704;38.274;2023-02-02T17:32:12;0.67;93.73
75865;HTU21D;64510;46.704;38.274;2023-02-02T17:34:38;0.63;93.69
75865;HTU21D;64510;46.704;38.274;2023-02-02T17:37:04;0.60;93.68
75865;HTU21D;64510;46.704;38.274;2023-02-02T17:39:30;0.57;93.95
75865;HTU21D;64510;46.704;38.274;2023-02-02T17:41:56;0.52;93.93
75865;HTU21D;64510;46.704;38.274;2023-02-02T17:44:21;0.49;93.54
75865;HTU21D;64510;46.704;38.274;2023-02-02T17:46:47;0.47;93.66
75865;HTU21D;64510;46.704;38.274;2023-02-02T17:49:13;0.45;93.68
75865;HTU21D;64510;46.704;38.274;2023-02-02T17:51:39;0.42;93.87
75865;HTU21D;64510;46.704;38.274;2023-02-02T17:54:12;0.38;93.95
75865;HTU21D;64510;46.704;38.274;2023-02-02T17:56:39;0.33;93.61
75865;HTU21D;64510;46.704;38.274;2023-02-02T17:59:05;0.33;93.59
75865;HTU21D;64510;46.704;38.274;2023-02-02T18:01:32;0.35;93.76
75865;HTU21D;64510;46.704;38.274;2023-02-02T18:03:59;0.36;93.77
75865;HTU21D;64510;46.704;38.274;2023-02-02T18:06:25;0.34;93.83
75865;HTU21D;64510;46.704;38.274;2023-02-02T18:08:50;0.32;93.85
75865;HTU21D;64510;46.704;38.274;2023-02-02T18:11:17;0.29;93.79
75865;HTU21D;64510;46.704;38.274;2023-02-02T18:13:43;0.25;93.69
75865;HTU21D;64510;46.704;38.274;2023-02-02T18:16:10;0.23;93.81
75865;HTU21D;64510;46.704;38.274;2023-02-02T18:18:37;0.22;94.00
75865;HTU21D;64510;46.704;38.274;2023-02-02T18:21:07;0.21;93.86
75865;HTU21D;64510;46.704;38.274;2023-02-02T18:23:34;0.24;93.91
75865;HTU21D;64510;46.704;38.274;2023-02-02T18:26:13;0.25;94.08
75865;HTU21D;64510;46.704;38.274;2023-02-02T18:28:39;0.24;94.22
75865;HTU21D;64510;46.704;38.274;2023-02-02T18:31:12;0.23;94.20
75865;HTU21D;64510;46.704;38.274;2023-02-02T18:33:39;0.22;95.88